Time;durP1;ratioP1;P1;durP2;ratioP2;P2;SDS_P1;SDS_P2;PMS_P1;PMS_P2;Temp;Humidity;BMP_temperature;BMP_pressure;BME280_temperature;BME280_humidity;BME280_pressure;Samples;Min_cycle;Max_cycle;Signal;HPM_P1;HPM_P2
2023/08/21 00:01:16;;;;;;;7.15;2.03;;;17.60;99.90;;;;;;5050457;28;20028;-48
2023/08/21 00:03:42;;;;;;;3.83;1.50;;;15.70;99.90;;;;;;5050496;28;20025;-51
2023/08/21 00:06:08;;;;;;;7.18;1.85;;;13.60;99.90;;;;;;5050332;28;20037;-51
2023/08/21 00:08:33;;;;;;;3.53;1.58;;;13.80;99.90;;;;;;5050311;28;20039;-47
2023/08/21 00:10:59;;;;;;;8.43;2.22;;;13.50;99.90;;;;;;5050420;28;20029;-46
2023/08/21 00:13:24;;;;;;;3.92;1.77;;;15.50;99.90;;;;;;5050142;28;20028;-47
2023/08/21 00:15:50;;;;;;;6.60;1.85;;;15.50;99.90;;;;;;5050122;28;20078;-48
2023/08/21 00:18:16;;;;;;;5.35;1.73;;;17.40;99.90;;;;;;5050354;28;20021;-55
2023/08/21 00:20:42;;;;;;;4.50;1.67;;;16.40;99.90;;;;;;5050412;28;20064;-50
2023/08/21 00:23:08;;;;;;;3.00;1.65;;;13.40;99.90;;;;;;5050046;28;20029;-50
2023/08/21 00:25:34;;;;;;;3.92;2.00;;;15.40;99.90;;;;;;5049016;28;20358;-45
2023/08/21 00:28:00;;;;;;;6.43;1.70;;;15.20;99.90;;;;;;5050371;28;20040;-50
2023/08/21 00:30:26;;;;;;;4.70;1.42;;;15.60;99.90;;;;;;5049950;28;20020;-51
2023/08/21 00:32:51;;;;;;;6.40;1.60;;;14.30;99.90;;;;;;5050384;28;20478;-49
2023/08/21 00:35:17;;;;;;;5.47;1.80;;;16.30;99.90;;;;;;5049843;28;20029;-51
2023/08/21 00:37:43;;;;;;;4.38;1.50;;;15.50;99.90;;;;;;5050155;28;20029;-48
2023/08/21 00:40:09;;;;;;;5.65;1.65;;;15.00;99.90;;;;;;5049906;28;20120;-57
2023/08/21 00:42:34;;;;;;;1.88;1.30;;;16.10;99.90;;;;;;5050289;28;20025;-52
2023/08/21 00:45:00;;;;;;;4.18;1.58;;;12.80;99.90;;;;;;5050001;28;20098;-49
2023/08/21 00:47:26;;;;;;;4.28;1.63;;;15.10;99.90;;;;;;5049510;28;20108;-48
2023/08/21 00:49:52;;;;;;;4.10;1.77;;;;;;;;;;5049757;28;20132;-47
2023/08/21 00:52:18;;;;;;;6.15;2.13;;;15.60;99.90;;;;;;5049609;28;20017;-45
2023/08/21 00:54:43;;;;;;;4.85;1.70;;;15.40;99.90;;;;;;5049966;28;20021;-50
2023/08/21 00:57:10;;;;;;;2.88;1.55;;;15.40;99.90;;;;;;5049890;28;20036;-55
2023/08/21 00:59:37;;;;;;;3.78;1.40;;;16.50;99.90;;;;;;5049948;28;20033;-48
2023/08/21 01:02:03;;;;;;;4.20;1.50;;;16.00;99.90;;;;;;5049506;28;20033;-55
2023/08/21 01:04:29;;;;;;;4.13;1.77;;;16.30;99.90;;;;;;5049746;28;20029;-50
2023/08/21 01:06:56;;;;;;;5.47;1.92;;;16.10;99.90;;;;;;5049676;28;20069;-55
2023/08/21 01:09:23;;;;;;;5.28;2.33;;;;;;;;;;5049608;28;20108;-52
2023/08/21 01:11:54;;;;;;;5.72;1.77;;;16.10;99.90;;;;;;5049714;28;20033;-50
2023/08/21 01:14:36;;;;;;;5.78;1.85;;;17.00;99.90;;;;;;5052682;28;20112;-51
2023/08/21 01:17:05;;;;;;;2.95;1.73;;;16.00;99.90;;;;;;5053259;28;20048;-52
2023/08/21 01:19:40;;;;;;;5.83;1.87;;;15.90;99.90;;;;;;5053353;28;20107;-56
2023/08/21 01:22:06;;;;;;;3.30;1.77;;;13.50;99.90;;;;;;5041048;28;20262;-45
2023/08/21 01:24:33;;;;;;;4.45;2.00;;;;;;;;;;5053329;28;20172;-52
2023/08/21 01:26:59;;;;;;;7.82;2.03;;;17.30;99.90;;;;;;5053111;28;20040;-51
2023/08/21 01:29:25;;;;;;;3.30;1.77;;;16.10;99.90;;;;;;5053179;28;20405;-50
2023/08/21 01:31:58;;;;;;;5.97;2.10;;;15.00;99.90;;;;;;5052718;28;20025;-47
2023/08/21 01:34:26;;;;;;;5.63;2.00;;;13.00;99.90;;;;;;5053059;28;20588;-52
2023/08/21 01:36:52;;;;;;;12.77;2.40;;;16.10;99.90;;;;;;5053074;28;20037;-53
2023/08/21 01:39:18;;;;;;;6.15;2.25;;;17.30;99.90;;;;;;5044112;28;20045;-54
2023/08/21 01:41:44;;;;;;;7.45;2.60;;;16.00;99.90;;;;;;5047977;28;20111;-45
2023/08/21 01:44:09;;;;;;;9.15;3.10;;;16.80;99.90;;;;;;5052673;28;20111;-45
2023/08/21 01:46:35;;;;;;;6.65;2.72;;;17.00;99.90;;;;;;5052204;28;20048;-47
2023/08/21 01:49:00;;;;;;;5.38;2.47;;;16.10;99.90;;;;;;5052647;28;20051;-53
2023/08/21 01:51:26;;;;;;;5.15;2.08;;;15.80;99.90;;;;;;5052683;28;20021;-53
2023/08/21 01:53:51;;;;;;;4.20;2.00;;;12.40;99.90;;;;;;5052909;28;20025;-46
2023/08/21 01:56:17;;;;;;;4.97;1.75;;;16.40;99.90;;;;;;5053872;28;20028;-46
2023/08/21 01:58:42;;;;;;;5.13;1.75;;;12.90;99.90;;;;;;5052918;28;20028;-51
2023/08/21 02:01:08;;;;;;;3.50;1.63;;;15.20;99.90;;;;;;5052321;28;20036;-48
2023/08/21 02:03:34;;;;;;;4.82;2.17;;;15.50;99.90;;;;;;5052745;28;20125;-49
2023/08/21 02:05:59;;;;;;;7.72;2.28;;;15.70;99.90;;;;;;5052312;28;20017;-48
2023/08/21 02:08:31;;;;;;;3.97;2.05;;;16.80;99.90;;;;;;5052502;28;20044;-50
2023/08/21 02:10:57;;;;;;;3.63;1.73;;;15.60;99.90;;;;;;5052382;28;20025;-53
2023/08/21 02:13:22;;;;;;;5.13;1.77;;;15.40;99.90;;;;;;5052343;28;20048;-45
2023/08/21 02:15:48;;;;;;;3.85;1.70;;;13.70;99.90;;;;;;5052082;28;20025;-52
2023/08/21 02:18:14;;;;;;;6.32;1.83;;;12.70;99.90;;;;;;5052012;28;20024;-53
2023/08/21 02:20:39;;;;;;;3.97;1.90;;;14.40;99.90;;;;;;5052332;28;20116;-52
2023/08/21 02:23:05;;;;;;;7.22;2.20;;;14.50;99.90;;;;;;5052250;28;20032;-52
2023/08/21 02:25:31;;;;;;;4.60;1.85;;;14.40;99.90;;;;;;5051292;28;20013;-53
2023/08/21 02:27:57;;;;;;;5.68;2.28;;;;;;;;;;5052034;28;20044;-50
2023/08/21 02:30:26;;;;;;;6.32;1.83;;;15.70;99.90;;;;;;5051955;28;20017;-52
2023/08/21 02:32:52;;;;;;;6.18;1.98;;;16.80;99.90;;;;;;5052096;28;20025;-48
2023/08/21 02:35:18;;;;;;;7.10;2.20;;;15.80;99.90;;;;;;5051850;28;20028;-53
2023/08/21 02:37:44;;;;;;;6.47;1.90;;;14.30;99.90;;;;;;5051920;28;20031;-52
2023/08/21 02:40:09;;;;;;;4.70;1.70;;;14.70;99.90;;;;;;5051633;28;20436;-51
2023/08/21 02:42:36;;;;;;;3.50;1.95;;;14.70;99.90;;;;;;5051853;28;20062;-46
2023/08/21 02:45:07;;;;;;;7.22;2.08;;;12.50;99.90;;;;;;5051531;28;20033;-49
2023/08/21 02:47:40;;;;;;;4.25;1.92;;;14.60;99.90;;;;;;5051716;28;20047;-45
2023/08/21 02:50:07;;;;;;;6.25;2.47;;;14.70;99.90;;;;;;5050005;28;20071;-50
2023/08/21 02:52:34;;;;;;;7.22;2.10;;;14.80;99.90;;;;;;5051517;28;20194;-53
2023/08/21 02:55:00;;;;;;;10.15;2.67;;;14.80;99.90;;;;;;5051390;28;20036;-52
2023/08/21 02:57:27;;;;;;;4.53;2.33;;;15.50;99.90;;;;;;5051571;28;20025;-52
2023/08/21 02:59:52;;;;;;;6.82;2.28;;;14.90;99.90;;;;;;5051583;28;20117;-56
2023/08/21 03:02:18;;;;;;;7.00;2.80;;;16.10;99.90;;;;;;5051405;28;20104;-56
2023/08/21 03:04:44;;;;;;;7.65;2.90;;;15.80;99.90;;;;;;5051621;28;20104;-53
2023/08/21 03:07:10;;;;;;;8.80;3.05;;;15.60;99.90;;;;;;5051342;28;20029;-45
2023/08/21 03:09:37;;;;;;;6.30;2.63;;;15.90;99.90;;;;;;5051413;28;20390;-56
2023/08/21 03:12:03;;;;;;;6.72;2.60;;;16.60;99.90;;;;;;5051298;28;20094;-55
2023/08/21 03:14:28;;;;;;;7.65;2.50;;;15.40;99.90;;;;;;5051376;28;20489;-57
2023/08/21 03:16:54;;;;;;;4.22;2.30;;;12.50;99.90;;;;;;5051091;28;20029;-52
2023/08/21 03:19:19;;;;;;;6.47;3.05;;;15.50;99.90;;;;;;5051235;28;20017;-56
2023/08/21 03:21:45;;;;;;;6.28;2.58;;;16.40;99.90;;;;;;5051219;28;20126;-52
2023/08/21 03:24:11;;;;;;;5.03;2.20;;;16.60;99.90;;;;;;5051060;28;20021;-51
2023/08/21 03:26:36;;;;;;;9.27;2.47;;;16.10;99.90;;;;;;5051063;28;20056;-52
2023/08/21 03:29:02;;;;;;;9.85;2.50;;;16.80;99.90;;;;;;5051251;28;20118;-54
2023/08/21 03:31:28;;;;;;;5.53;2.15;;;15.80;99.90;;;;;;5050953;28;20032;-49
2023/08/21 03:33:53;;;;;;;3.80;1.75;;;16.30;99.90;;;;;;5051215;28;20462;-52
2023/08/21 03:36:19;;;;;;;7.03;2.13;;;16.50;99.90;;;;;;5050681;28;20020;-50
2023/08/21 03:38:45;;;;;;;5.07;2.38;;;16.20;99.90;;;;;;5050900;28;20029;-45
2023/08/21 03:41:11;;;;;;;3.55;1.88;;;15.60;99.90;;;;;;5050670;28;20036;-54
2023/08/21 03:43:37;;;;;;;4.78;2.30;;;15.60;99.90;;;;;;5050824;28;20017;-47
2023/08/21 03:46:03;;;;;;;8.18;2.50;;;13.50;99.90;;;;;;5050510;28;20032;-56
2023/08/21 03:48:29;;;;;;;4.43;2.42;;;15.60;99.90;;;;;;5050673;28;20044;-54
2023/08/21 03:50:54;;;;;;;7.00;2.92;;;16.60;99.90;;;;;;5050792;28;20100;-51
2023/08/21 03:53:20;;;;;;;6.82;2.92;;;;;;;;;;5050575;28;20108;-51
2023/08/21 03:55:46;;;;;;;5.47;2.80;;;15.80;99.90;;;;;;5050557;28;20025;-55
2023/08/21 03:58:13;;;;;;;7.47;2.88;;;16.80;99.90;;;;;;5050246;28;20029;-46
2023/08/21 04:00:39;;;;;;;5.90;2.58;;;13.30;99.90;;;;;;5050596;28;20025;-52
2023/08/21 04:03:04;;;;;;;8.55;3.03;;;17.30;99.90;;;;;;5050493;28;20033;-49
2023/08/21 04:05:30;;;;;;;11.60;3.03;;;16.10;99.90;;;;;;5049126;28;20021;-50
2023/08/21 04:07:56;;;;;;;5.30;3.03;;;18.00;99.90;;;;;;5050430;28;20124;-50
2023/08/21 04:10:21;;;;;;;6.20;2.83;;;15.60;99.90;;;;;;5050199;28;20552;-47
2023/08/21 04:12:47;;;;;;;7.38;3.10;;;15.90;99.90;;;;;;5050174;28;20033;-45
2023/08/21 04:15:13;;;;;;;7.85;3.10;;;17.10;99.90;;;;;;5035333;28;20364;-52
2023/08/21 04:17:38;;;;;;;7.03;2.95;;;15.90;99.90;;;;;;5040852;28;20033;-45
2023/08/21 04:20:05;;;;;;;6.18;2.90;;;16.60;99.90;;;;;;5041410;28;20021;-46
2023/08/21 04:22:30;;;;;;;11.15;3.50;;;16.50;99.90;;;;;;5033862;28;20022;-51
2023/08/21 04:24:56;;;;;;;9.30;3.10;;;13.50;99.90;;;;;;5039159;28;20025;-51
2023/08/21 04:27:21;;;;;;;8.52;3.30;;;16.90;99.90;;;;;;5041952;28;20414;-52
2023/08/21 04:29:47;;;;;;;9.50;3.72;;;17.10;99.90;;;;;;5036730;28;20029;-47
2023/08/21 04:32:12;;;;;;;7.38;3.28;;;16.70;99.90;;;;;;5035277;28;20372;-44
2023/08/21 04:34:38;;;;;;;11.13;3.65;;;16.60;99.90;;;;;;5042217;28;20020;-45
2023/08/21 04:37:04;;;;;;;7.10;3.85;;;17.30;99.90;;;;;;5042012;28;20375;-49
2023/08/21 04:39:30;;;;;;;6.10;3.13;;;16.10;99.90;;;;;;5033929;28;20028;-53
2023/08/21 04:41:55;;;;;;;7.13;3.60;;;16.10;99.90;;;;;;5039063;28;20021;-52
2023/08/21 04:44:21;;;;;;;10.25;3.40;;;14.40;99.90;;;;;;5041903;28;20056;-49
2023/08/21 04:46:49;;;;;;;6.28;3.13;;;16.20;99.90;;;;;;5036702;28;20061;-47
2023/08/21 04:49:14;;;;;;;12.07;3.67;;;18.00;99.90;;;;;;5037591;28;20487;-53
2023/08/21 04:51:40;;;;;;;7.72;3.53;;;17.10;99.90;;;;;;5045733;28;20112;-51
2023/08/21 04:54:06;;;;;;;6.22;3.03;;;;;;;;;;5044660;28;20021;-45
2023/08/21 04:56:31;;;;;;;9.68;3.47;;;16.20;99.90;;;;;;5037376;28;20079;-50
2023/08/21 04:58:57;;;;;;;7.28;3.15;;;16.70;99.90;;;;;;5042796;28;20479;-55
2023/08/21 05:01:24;;;;;;;7.05;3.25;;;16.20;99.90;;;;;;5047099;28;20029;-46
2023/08/21 05:03:50;;;;;;;4.47;2.63;;;17.30;99.90;;;;;;5053571;28;20027;-48
2023/08/21 05:06:16;;;;;;;10.23;3.17;;;16.30;99.90;;;;;;5053659;28;20037;-54
2023/08/21 05:08:42;;;;;;;6.72;2.92;;;;;;;;;;5053985;28;20029;-48
2023/08/21 05:11:07;;;;;;;9.13;3.38;;;;;;;;;;5053655;28;20064;-51
2023/08/21 05:13:33;;;;;;;5.53;3.20;;;16.90;99.90;;;;;;5053704;28;20077;-49
2023/08/21 05:15:59;;;;;;;7.38;3.75;;;;;;;;;;5053643;28;20087;-51
2023/08/21 05:18:26;;;;;;;10.00;4.60;;;17.40;99.90;;;;;;5053486;28;20032;-49
2023/08/21 05:20:54;;;;;;;12.05;4.13;;;16.40;99.90;;;;;;5053322;28;20108;-55
2023/08/21 05:23:20;;;;;;;10.80;3.85;;;13.40;99.90;;;;;;5053427;28;20106;-54
2023/08/21 05:25:49;;;;;;;9.00;3.90;;;14.30;99.90;;;;;;5053386;28;20017;-50
2023/08/21 05:28:14;;;;;;;10.07;4.22;;;17.20;99.90;;;;;;5053290;28;20105;-53
2023/08/21 05:30:40;;;;;;;6.50;3.90;;;16.30;99.90;;;;;;5053230;28;20583;-45
2023/08/21 05:33:06;;;;;;;7.78;3.78;;;17.10;99.90;;;;;;5053160;28;20021;-48
2023/08/21 05:35:35;;;;;;;7.35;3.13;;;15.20;99.90;;;;;;5053012;28;20040;-49
2023/08/21 05:38:02;;;;;;;7.38;2.95;;;16.50;99.90;;;;;;5053044;28;20563;-46
2023/08/21 05:40:28;;;;;;;5.35;2.80;;;17.30;99.90;;;;;;5053037;28;20029;-50
2023/08/21 05:42:54;;;;;;;5.32;2.65;;;;;;;;;;5052703;28;20029;-45
2023/08/21 05:45:19;;;;;;;5.72;2.70;;;17.10;99.90;;;;;;5053011;28;20025;-49
2023/08/21 05:47:45;;;;;;;9.85;2.85;;;14.00;99.90;;;;;;5052521;28;20456;-51
2023/08/21 05:50:11;;;;;;;6.25;3.35;;;17.10;99.90;;;;;;5052831;28;20027;-54
2023/08/21 05:52:36;;;;;;;7.53;3.45;;;17.00;99.90;;;;;;5052721;28;20428;-51
2023/08/21 05:55:02;;;;;;;9.50;3.78;;;17.00;99.90;;;;;;5052878;28;20025;-51
2023/08/21 05:57:27;;;;;;;11.95;3.65;;;16.40;99.90;;;;;;5052790;28;20486;-47
2023/08/21 05:59:53;;;;;;;16.27;4.00;;;18.70;99.90;;;;;;5052527;28;20048;-45
2023/08/21 06:02:19;;;;;;;6.15;3.15;;;16.30;99.90;;;;;;5052592;28;20078;-48
2023/08/21 06:04:45;;;;;;;4.90;2.67;;;16.50;99.90;;;;;;5052461;28;20033;-55
2023/08/21 06:07:11;;;;;;;6.55;2.80;;;17.40;99.90;;;;;;5052551;28;20029;-49
2023/08/21 06:09:37;;;;;;;7.28;2.58;;;18.70;99.90;;;;;;5052532;28;20532;-49
2023/08/21 06:12:03;;;;;;;7.57;2.70;;;15.90;99.90;;;;;;5052309;28;20107;-47
2023/08/21 06:14:29;;;;;;;5.85;2.40;;;17.10;99.90;;;;;;5052642;28;20017;-50
2023/08/21 06:16:57;;;;;;;4.68;2.15;;;16.80;99.90;;;;;;5052199;28;20033;-50
2023/08/21 06:19:23;;;;;;;6.88;2.80;;;;;;;;;;5052312;28;20017;-47
2023/08/21 06:21:48;;;;;;;5.65;2.40;;;17.00;99.90;;;;;;5052556;28;20028;-48
2023/08/21 06:24:14;;;;;;;5.57;2.10;;;17.60;99.90;;;;;;5052226;28;20028;-52
2023/08/21 06:26:40;;;;;;;6.68;2.90;;;17.10;99.90;;;;;;5052236;28;20066;-51
2023/08/21 06:29:05;;;;;;;6.13;2.38;;;16.70;99.90;;;;;;5052060;28;20099;-54
2023/08/21 06:31:31;;;;;;;7.75;3.20;;;17.10;99.90;;;;;;5052000;28;20060;-47
2023/08/21 06:33:57;;;;;;;4.72;1.92;;;17.60;99.90;;;;;;5051792;28;20031;-48
2023/08/21 06:36:22;;;;;;;5.70;2.00;;;15.40;99.90;;;;;;5052205;28;20013;-46
2023/08/21 06:38:48;;;;;;;6.30;2.28;;;14.40;99.90;;;;;;5051775;28;20549;-48
2023/08/21 06:41:14;;;;;;;4.40;2.03;;;17.90;99.90;;;;;;5051821;28;20100;-49
2023/08/21 06:43:39;;;;;;;3.42;1.85;;;16.90;99.90;;;;;;5051799;28;20128;-49
2023/08/21 06:46:05;;;;;;;4.95;2.42;;;17.30;99.90;;;;;;5048066;28;20026;-54
2023/08/21 06:48:31;;;;;;;6.20;2.08;;;17.20;99.90;;;;;;5031963;28;20049;-53
2023/08/21 06:50:57;;;;;;;3.55;2.33;;;;;;;;;;5036270;28;20034;-48
2023/08/21 06:53:22;;;;;;;5.90;2.33;;;17.10;99.90;;;;;;5038133;28;20097;-51
2023/08/21 06:55:48;;;;;;;6.18;1.92;;;14.70;99.90;;;;;;5037167;28;20623;-50
2023/08/21 06:58:14;;;;;;;9.57;2.15;;;18.10;99.90;;;;;;5033391;28;20029;-46
2023/08/21 07:00:39;;;;;;;6.65;2.15;;;14.50;99.90;;;;;;5050085;28;20040;-46
2023/08/21 07:03:07;;;;;;;6.47;1.92;;;17.70;99.90;;;;;;5051377;28;20024;-55
2023/08/21 07:05:33;;;;;;;6.38;1.75;;;17.40;99.90;;;;;;5051224;28;20013;-53
2023/08/21 07:07:59;;;;;;;4.95;1.48;;;15.50;99.90;;;;;;5051088;28;20078;-55
2023/08/21 07:10:25;;;;;;;4.50;1.60;;;16.90;99.90;;;;;;5034744;28;20108;-46
2023/08/21 07:12:51;;;;;;;8.25;1.52;;;17.00;99.90;;;;;;5041853;28;20029;-48
2023/08/21 07:15:16;;;;;;;4.78;1.85;;;18.20;99.90;;;;;;5043005;28;20771;-47
2023/08/21 07:17:42;;;;;;;6.57;1.67;;;18.50;99.90;;;;;;5036903;28;20119;-48
2023/08/21 07:20:08;;;;;;;4.35;1.67;;;16.30;99.90;;;;;;5038201;28;20153;-52
2023/08/21 07:22:33;;;;;;;7.15;1.50;;;17.10;99.90;;;;;;5043188;28;20115;-50
2023/08/21 07:25:03;;;;;;;5.25;1.65;;;17.90;99.90;;;;;;5036798;28;20079;-47
2023/08/21 07:27:29;;;;;;;5.18;1.95;;;18.40;99.90;;;;;;5039922;28;20045;-46
2023/08/21 07:29:55;;;;;;;7.03;1.60;;;18.30;99.90;;;;;;5035851;28;20075;-46
2023/08/21 07:32:21;;;;;;;3.92;1.88;;;15.30;99.90;;;;;;5034643;28;20465;-48
2023/08/21 07:34:46;;;;;;;4.15;1.70;;;18.40;99.90;;;;;;5039500;28;20478;-47
2023/08/21 07:37:12;;;;;;;5.13;1.75;;;18.70;99.90;;;;;;5032979;28;20032;-47
2023/08/21 07:39:37;;;;;;;2.45;1.80;;;20.20;99.90;;;;;;5033146;28;20022;-49
2023/08/21 07:42:03;;;;;;;3.95;1.90;;;17.70;99.90;;;;;;5030901;28;20075;-52
2023/08/21 07:44:29;;;;;;;4.38;1.80;;;18.30;99.90;;;;;;5032708;28;20041;-56
2023/08/21 07:46:54;;;;;;;4.90;1.90;;;15.20;99.90;;;;;;5046621;28;20052;-50
2023/08/21 07:49:20;;;;;;;6.13;2.50;;;18.00;99.90;;;;;;5050243;28;20043;-45
2023/08/21 07:51:46;;;;;;;6.10;1.95;;;17.80;99.90;;;;;;5050815;28;20378;-53
2023/08/21 07:54:12;;;;;;;10.23;2.85;;;18.00;99.90;;;;;;5050631;28;20466;-50
2023/08/21 07:56:37;;;;;;;4.93;2.67;;;18.40;99.90;;;;;;5050471;28;20028;-54
2023/08/21 07:59:03;;;;;;;9.73;3.15;;;18.90;99.90;;;;;;5049903;28;20024;-44
2023/08/21 08:01:29;;;;;;;6.25;3.47;;;19.10;99.90;;;;;;5035986;28;20029;-52
2023/08/21 08:03:54;;;;;;;10.80;4.13;;;18.00;99.90;;;;;;5031917;28;20532;-46
2023/08/21 08:06:20;;;;;;;6.50;4.53;;;15.70;99.90;;;;;;5030113;28;20030;-49
2023/08/21 08:08:45;;;;;;;9.40;4.47;;;15.10;99.90;;;;;;5032177;28;20065;-55
2023/08/21 08:11:11;;;;;;;10.85;4.53;;;19.10;99.90;;;;;;5032183;28;20029;-52
2023/08/21 08:13:37;;;;;;;10.55;4.95;;;18.20;99.90;;;;;;5031931;28;20094;-53
2023/08/21 08:16:03;;;;;;;8.43;4.80;;;;;;;;;;5030105;28;20112;-46
2023/08/21 08:18:28;;;;;;;10.95;5.68;;;19.00;99.90;;;;;;5032123;28;20080;-47
2023/08/21 08:20:54;;;;;;;12.35;6.20;;;18.80;99.90;;;;;;5032019;28;20030;-51
2023/08/21 08:23:20;;;;;;;10.40;5.80;;;16.60;99.90;;;;;;5038927;28;20441;-50
2023/08/21 08:25:47;;;;;;;10.65;6.00;;;19.80;99.90;;;;;;5041149;28;20026;-46
2023/08/21 08:28:12;;;;;;;10.52;6.20;;;17.90;99.90;;;;;;5037070;28;20375;-52
2023/08/21 08:30:38;;;;;;;9.68;5.53;;;;;;;;;;5038191;28;20014;-45
2023/08/21 08:33:04;;;;;;;11.10;6.00;;;18.40;99.90;;;;;;5041326;28;20052;-45
2023/08/21 08:35:30;;;;;;;8.93;5.57;;;19.00;99.90;;;;;;5041513;28;20017;-50
2023/08/21 08:37:55;;;;;;;8.77;4.93;;;19.00;99.90;;;;;;5048170;28;20102;-52
2023/08/21 08:40:22;;;;;;;9.07;5.60;;;19.00;99.90;;;;;;5039136;28;20028;-52
2023/08/21 08:42:47;;;;;;;9.30;4.85;;;19.10;99.90;;;;;;5035485;28;20025;-50
2023/08/21 08:45:14;;;;;;;10.75;4.80;;;18.50;99.90;;;;;;5047371;28;20025;-44
2023/08/21 08:47:41;;;;;;;7.95;4.25;;;18.40;99.90;;;;;;5036613;28;20051;-56
2023/08/21 08:50:08;;;;;;;12.38;4.53;;;18.80;99.90;;;;;;5044923;28;20601;-53
2023/08/21 08:52:36;;;;;;;8.65;4.28;;;19.20;99.90;;;;;;5053631;28;20087;-48
2023/08/21 08:55:03;;;;;;;10.10;4.55;;;19.10;99.90;;;;;;5047942;28;20080;-47
2023/08/21 08:57:29;;;;;;;11.70;5.18;;;18.80;99.90;;;;;;5038660;28;20112;-48
2023/08/21 08:59:54;;;;;;;9.93;4.75;;;17.10;99.90;;;;;;5039158;28;20147;-51
2023/08/21 09:02:20;;;;;;;8.30;4.50;;;20.70;99.90;;;;;;5053809;28;20036;-53
2023/08/21 09:04:45;;;;;;;10.00;5.25;;;20.40;99.90;;;;;;5042485;28;20036;-53
2023/08/21 09:07:12;;;;;;;8.07;4.25;;;18.70;99.90;;;;;;5050662;28;20040;-55
2023/08/21 09:09:45;;;;;;;12.35;4.70;;;15.90;99.90;;;;;;5053497;28;20024;-56
2023/08/21 09:12:12;;;;;;;7.93;4.40;;;18.90;99.90;;;;;;5053483;28;20032;-47
2023/08/21 09:14:42;;;;;;;8.00;4.10;;;19.70;99.90;;;;;;5052769;28;20028;-50
2023/08/21 09:17:08;;;;;;;7.80;4.57;;;20.00;99.90;;;;;;5041461;28;20427;-53
2023/08/21 09:19:34;;;;;;;8.10;3.88;;;18.40;99.90;;;;;;5036417;28;20074;-45
2023/08/21 09:22:20;;;;;;;7.88;4.03;;;19.70;99.90;;;;;;5050683;28;20029;-54
2023/08/21 09:25:12;;;;;;;6.05;3.25;;;19.20;99.90;;;;;;5036177;28;20040;-46
2023/08/21 09:27:40;;;;;;;6.70;3.95;;;19.50;99.90;;;;;;5036032;28;20490;-50
2023/08/21 09:30:09;;;;;;;7.13;3.22;;;19.30;99.90;;;;;;5044468;28;20093;-46
2023/08/21 09:32:53;;;;;;;8.10;3.20;;;19.90;99.90;;;;;;5044074;28;20048;-46
2023/08/21 09:35:19;;;;;;;6.13;2.70;;;20.50;99.90;;;;;;5043838;28;20032;-55
2023/08/21 09:37:47;;;;;;;7.95;3.63;;;17.50;99.90;;;;;;5044099;28;20028;-50
2023/08/21 09:40:12;;;;;;;8.05;3.60;;;21.50;99.90;;;;;;5034785;28;20037;-53
2023/08/21 09:42:39;;;;;;;5.97;2.78;;;20.40;99.90;;;;;;5039849;28;20095;-54
2023/08/21 09:45:05;;;;;;;8.63;3.50;;;;;;;;;;5032653;28;20034;-47
2023/08/21 09:47:32;;;;;;;6.80;3.05;;;18.00;99.90;;;;;;5032790;28;20478;-51
2023/08/21 09:49:59;;;;;;;7.47;3.15;;;21.10;99.90;;;;;;5031969;28;20933;-48
2023/08/21 09:52:26;;;;;;;5.88;3.30;;;22.70;99.90;;;;;;5032498;28;20036;-48
2023/08/21 09:54:57;;;;;;;6.82;2.80;;;20.60;99.90;;;;;;5032560;28;20029;-56
2023/08/21 09:57:23;;;;;;;5.07;3.00;;;22.00;99.90;;;;;;5032653;28;20049;-48
2023/08/21 09:59:53;;;;;;;8.55;3.35;;;21.60;99.90;;;;;;5047402;28;20044;-46
2023/08/21 10:02:23;;;;;;;5.82;3.15;;;20.20;99.90;;;;;;5053339;28;20045;-48
2023/08/21 10:04:49;;;;;;;4.25;2.60;;;22.30;99.90;;;;;;5052362;28;20078;-56
2023/08/21 10:07:20;;;;;;;4.30;2.33;;;24.50;99.90;;;;;;5052365;28;20033;-46
2023/08/21 10:09:46;;;;;;;4.93;2.35;;;24.40;99.90;;;;;;5051903;28;20450;-46
2023/08/21 10:12:14;;;;;;;6.32;2.22;;;25.20;99.90;;;;;;5044306;28;20033;-48
2023/08/21 10:14:41;;;;;;;4.60;2.10;;;25.70;99.90;;;;;;5031873;28;20125;-54
2023/08/21 10:17:08;;;;;;;5.07;1.98;;;26.10;99.90;;;;;;5035399;28;20258;-47
2023/08/21 10:19:34;;;;;;;3.75;2.05;;;28.50;99.90;;;;;;5043470;28;20024;-48
2023/08/21 10:22:00;;;;;;;3.22;2.00;;;26.30;99.90;;;;;;5032662;28;20038;-46
2023/08/21 10:24:36;;;;;;;5.18;2.00;;;26.30;99.90;;;;;;5032021;28;20016;-47
2023/08/21 10:27:02;;;;;;;3.88;1.92;;;26.10;99.90;;;;;;5033255;28;20119;-48
2023/08/21 10:29:28;;;;;;;3.97;2.05;;;25.10;99.90;;;;;;5031832;28;20032;-47
2023/08/21 10:32:02;;;;;;;4.32;1.95;;;24.60;99.90;;;;;;5032525;28;20033;-54
2023/08/21 10:34:37;;;;;;;4.65;1.92;;;24.10;99.90;;;;;;5031568;28;20021;-45
2023/08/21 10:37:05;;;;;;;3.72;1.90;;;23.80;99.90;;;;;;5035802;28;20089;-55
2023/08/21 10:39:33;;;;;;;3.83;2.05;;;23.70;99.90;;;;;;5035821;28;20057;-53
2023/08/21 10:42:35;;;;;;;4.60;1.80;;;23.90;99.90;;;;;;5033041;28;20475;-46
2023/08/21 10:44:59;;;;;;;5.88;2.00;;;23.90;99.90;;;;;;5041890;28;20483;-52
2023/08/21 10:47:28;;;;;;;6.57;2.15;;;24.60;99.90;;;;;;5034772;28;20118;-48
2023/08/21 10:49:59;;;;;;;2.40;1.60;;;25.20;99.90;;;;;;5031658;28;20098;-46
2023/08/21 10:52:27;;;;;;;3.28;1.80;;;25.10;99.90;;;;;;5040562;28;20044;-48
2023/08/21 10:54:55;;;;;;;2.78;1.80;;;24.40;99.90;;;;;;5045393;28;20073;-48
2023/08/21 10:57:22;;;;;;;2.55;1.80;;;24.80;99.90;;;;;;5043049;28;20159;-49
2023/08/21 11:00:05;;;;;;;2.58;1.58;;;25.60;99.90;;;;;;5033958;28;20419;-49
2023/08/21 11:02:32;;;;;;;3.80;1.65;;;26.10;99.90;;;;;;5033104;28;20025;-54
2023/08/21 11:04:58;;;;;;;4.22;1.80;;;25.70;99.90;;;;;;5036986;28;20017;-50
2023/08/21 11:07:25;;;;;;;2.88;1.80;;;25.50;99.90;;;;;;5031202;28;20041;-48
2023/08/21 11:09:51;;;;;;;3.95;1.58;;;25.20;99.90;;;;;;5035161;28;20021;-46
2023/08/21 11:12:18;;;;;;;3.00;1.60;;;24.80;99.90;;;;;;5035036;28;20032;-49
2023/08/21 11:14:44;;;;;;;3.08;1.58;;;24.80;99.90;;;;;;5031170;28;20589;-48
2023/08/21 11:17:11;;;;;;;4.28;1.50;;;24.90;99.90;;;;;;5033812;28;20029;-47
2023/08/21 11:19:37;;;;;;;2.15;1.30;;;25.30;99.90;;;;;;5033632;28;20029;-46
2023/08/21 11:22:04;;;;;;;2.70;1.67;;;25.80;99.90;;;;;;5042985;28;20432;-50
2023/08/21 11:24:53;;;;;;;4.43;1.60;;;25.90;99.90;;;;;;5036020;28;20021;-44
2023/08/21 11:27:19;;;;;;;;;;;25.90;99.90;;;;;;5034366;28;20037;-46
2023/08/21 11:29:47;;;;;;;4.88;1.70;;;26.10;99.90;;;;;;5031807;28;20396;-52
2023/08/21 11:32:21;;;;;;;2.40;1.45;;;26.50;99.90;;;;;;5032256;28;20037;-51
2023/08/21 11:34:48;;;;;;;1.40;1.00;;;26.30;99.90;;;;;;5030971;28;20038;-46
2023/08/21 11:37:16;;;;;;;4.18;1.50;;;26.10;99.90;;;;;;5031877;28;20542;-44
2023/08/21 11:39:44;;;;;;;4.28;1.60;;;25.80;99.90;;;;;;5032312;28;20096;-50
2023/08/21 11:42:13;;;;;;;5.03;1.50;;;26.40;99.90;;;;;;5030870;28;20486;-53
2023/08/21 11:44:59;;;;;;;3.38;1.30;;;25.60;99.90;;;;;;5031463;28;20181;-47
2023/08/21 11:47:30;;;;;;;4.13;1.30;;;26.40;99.90;;;;;;5031898;28;20494;-50
2023/08/21 11:49:56;;;;;;;2.83;1.20;;;25.30;99.90;;;;;;5031773;28;20046;-52
2023/08/21 11:52:26;;;;;;;4.28;1.23;;;26.80;99.90;;;;;;5031950;28;20124;-45
2023/08/21 11:54:53;;;;;;;3.65;1.20;;;26.80;99.90;;;;;;5030868;28;20033;-52
2023/08/21 11:57:20;;;;;;;2.28;1.00;;;26.00;99.90;;;;;;5037628;28;20078;-48
2023/08/21 11:59:55;;;;;;;3.53;1.02;;;26.40;99.90;;;;;;5032435;28;20102;-50
2023/08/21 12:02:25;;;;;;;3.13;0.80;;;26.70;99.90;;;;;;5037779;28;20025;-48
2023/08/21 12:05:05;;;;;;;3.25;1.10;;;26.70;99.90;;;;;;5050285;28;20024;-54
2023/08/21 12:07:31;;;;;;;1.33;0.90;;;26.50;99.90;;;;;;5037989;28;20397;-45
2023/08/21 12:09:57;;;;;;;2.17;0.80;;;26.60;99.90;;;;;;5050358;28;20025;-46
2023/08/21 12:12:23;;;;;;;1.42;0.95;;;26.70;99.90;;;;;;5050184;28;20549;-45
2023/08/21 12:14:49;;;;;;;2.75;0.80;;;26.90;99.90;;;;;;5050304;28;20124;-47
2023/08/21 12:17:14;;;;;;;2.50;0.93;;;27.00;99.90;;;;;;5050143;28;20100;-47
2023/08/21 12:19:41;;;;;;;0.90;0.70;;;26.80;99.90;;;;;;5044615;28;20482;-52
2023/08/21 12:22:07;;;;;;;3.20;1.08;;;27.10;99.90;;;;;;5044365;28;20071;-47
2023/08/21 12:24:32;;;;;;;2.13;1.05;;;26.80;99.90;;;;;;5042175;28;20045;-45
2023/08/21 12:26:58;;;;;;;1.25;0.70;;;26.70;99.90;;;;;;5047160;28;20021;-50
2023/08/21 12:29:24;;;;;;;1.35;0.57;;;26.60;99.90;;;;;;5048370;28;20029;-46
2023/08/21 12:31:49;;;;;;;1.75;0.63;;;26.70;99.90;;;;;;5048801;28;20481;-56
2023/08/21 12:34:15;;;;;;;1.67;0.70;;;27.10;99.90;;;;;;5048049;28;20024;-52
2023/08/21 12:36:40;;;;;;;1.60;0.98;;;26.40;99.90;;;;;;5050180;28;20021;-42
2023/08/21 12:39:07;;;;;;;4.45;1.30;;;26.30;99.90;;;;;;5049811;28;20090;-42
2023/08/21 12:41:33;;;;;;;2.38;0.90;;;26.30;99.90;;;;;;5050345;28;20089;-53
2023/08/21 12:43:59;;;;;;;1.50;0.70;;;26.30;99.90;;;;;;5050264;28;20469;-53
2023/08/21 12:46:27;;;;;;;2.30;0.90;;;26.50;99.90;;;;;;5049993;28;20476;-45
2023/08/21 12:48:53;;;;;;;2.67;0.60;;;26.70;99.90;;;;;;5049989;28;20570;-44